createdAt,value
2019-04-16T00:00:53.406Z,78.50
2019-04-16T00:01:53.392Z,79.17
2019-04-16T00:02:53.237Z,80.11
2019-04-16T00:03:54.184Z,80.11
2019-04-16T00:04:53.749Z,80.21
2019-04-16T00:05:53.372Z,80.87
2019-04-16T00:06:52.909Z,80.21
2019-04-16T00:07:52.923Z,79.36
2019-04-16T00:08:54.180Z,79.45
2019-04-16T00:09:52.672Z,78.73
2019-04-16T00:10:52.585Z,78.35
2019-04-16T00:11:52.552Z,78.16
2019-04-16T00:12:52.415Z,77.97
2019-04-16T00:13:52.452Z,77.22
2019-04-16T00:14:52.248Z,77.40
2019-04-16T00:15:52.259Z,77.03
2019-04-16T00:16:52.085Z,76.55
2019-04-16T00:17:52.070Z,76.08
2019-04-16T00:18:58.158Z,75.79
2019-04-16T00:19:51.842Z,75.42
2019-04-16T00:20:51.783Z,75.23
2019-04-16T00:21:51.675Z,75.60
2019-04-16T00:22:51.691Z,74.66
2019-04-16T00:23:51.522Z,74.56
2019-04-16T00:24:51.505Z,74.95
2019-04-16T00:25:52.020Z,74.66
2019-04-16T00:26:51.315Z,75.42
2019-04-16T00:27:51.188Z,75.70
2019-04-16T00:28:51.225Z,76.36
2019-04-16T00:29:51.021Z,77.12
2019-04-16T00:30:51.034Z,77.03
2019-04-16T00:31:50.856Z,76.84
2019-04-16T00:32:50.838Z,76.61
2019-04-16T00:33:50.692Z,76.89
2019-04-16T00:34:50.635Z,78.13
2019-04-16T00:35:50.536Z,78.50
2019-04-16T00:36:50.562Z,79.45
2019-04-16T00:37:51.643Z,79.45
2019-04-16T00:38:53.858Z,79.64
2019-04-16T00:39:50.207Z,79.64
2019-04-16T00:40:50.186Z,79.74
2019-04-16T00:41:50.040Z,80.21
2019-04-16T00:42:49.989Z,80.11
2019-04-16T00:43:49.873Z,79.55
2019-04-16T00:44:49.902Z,78.69
2019-04-16T00:45:49.710Z,78.41
2019-04-16T00:46:49.708Z,77.94
2019-04-16T00:47:51.443Z,77.65
2019-04-16T00:48:49.518Z,77.56
2019-04-16T00:49:49.382Z,76.89
2019-04-16T00:50:49.334Z,76.99
2019-04-16T00:51:49.229Z,76.70
2019-04-16T00:52:49.238Z,76.51
2019-04-16T00:53:49.051Z,76.70
2019-04-16T00:54:48.985Z,76.51
2019-04-16T00:55:48.890Z,76.14
2019-04-16T00:56:48.855Z,76.23
2019-04-16T00:57:49.300Z,76.32
2019-04-16T00:58:49.388Z,76.61
2019-04-16T00:59:48.561Z,77.46
2019-04-16T01:00:48.576Z,78.31
2019-04-16T01:01:48.402Z,79.07
2019-04-16T01:02:48.386Z,79.64
2019-04-16T01:03:48.239Z,79.45
2019-04-16T01:04:48.203Z,79.60
2019-04-16T01:05:48.066Z,79.60
2019-04-16T01:06:48.112Z,79.60
2019-04-16T01:07:47.903Z,80.07
2019-04-16T01:08:54.322Z,80.36
2019-04-16T01:09:47.741Z,79.79
2019-04-16T01:10:47.722Z,80.74
2019-04-16T01:11:48.859Z,81.21
2019-04-16T01:12:47.533Z,81.30
2019-04-16T01:13:47.406Z,81.02
2019-04-16T01:14:47.443Z,81.59
2019-04-16T01:15:47.247Z,81.49
2019-04-16T01:16:47.261Z,81.12
2019-04-16T01:17:47.083Z,80.36
2019-04-16T01:18:47.059Z,80.26
2019-04-16T01:19:46.929Z,78.46
2019-04-16T01:20:46.841Z,78.18
2019-04-16T01:21:46.752Z,78.88
2019-04-16T01:22:47.520Z,78.94
2019-04-16T01:23:49.306Z,78.79
2019-04-16T01:24:51.286Z,77.65
2019-04-16T01:25:46.425Z,77.37
2019-04-16T01:26:46.400Z,77.56
2019-04-16T01:27:46.260Z,77.75
2019-04-16T01:28:46.210Z,77.65
2019-04-16T01:29:46.090Z,77.46
2019-04-16T01:30:46.126Z,78.03
2019-04-16T01:31:45.925Z,78.03
2019-04-16T01:32:45.929Z,77.65
2019-04-16T01:33:46.732Z,77.84
2019-04-16T01:34:47.090Z,78.03
2019-04-16T01:35:45.621Z,77.65
2019-04-16T01:36:45.551Z,77.27
2019-04-16T01:37:45.432Z,76.89
2019-04-16T01:38:45.469Z,76.80
2019-04-16T01:39:47.729Z,76.80
2019-04-16T01:40:47.363Z,77.27
2019-04-16T01:41:45.106Z,76.89
2019-04-16T01:42:45.078Z,77.46
2019-04-16T01:43:44.938Z,77.27
2019-04-16T01:44:44.884Z,77.08
2019-04-16T01:45:44.780Z,76.99
2019-04-16T01:46:44.811Z,77.08
2019-04-16T01:47:44.607Z,76.51
2019-04-16T01:48:44.615Z,76.89
2019-04-16T01:49:44.443Z,76.99
2019-04-16T01:50:44.498Z,76.80
2019-04-16T01:51:44.639Z,77.46
2019-04-16T01:52:44.227Z,76.70
2019-04-16T01:53:44.180Z,77.46
2019-04-16T01:54:44.141Z,77.18
2019-04-16T01:55:43.949Z,77.37
2019-04-16T01:56:43.947Z,77.37
2019-04-16T01:57:43.784Z,77.37
2019-04-16T01:58:43.715Z,77.65
2019-04-16T01:59:43.622Z,77.18
2019-04-16T02:00:43.569Z,77.94
2019-04-16T02:01:44.211Z,77.65
2019-04-16T02:02:46.424Z,78.03
2019-04-16T02:03:43.301Z,77.84
2019-04-16T02:04:43.284Z,77.94
2019-04-16T02:05:43.126Z,77.94
2019-04-16T02:06:43.093Z,77.94
2019-04-16T02:07:42.957Z,78.22
2019-04-16T02:08:42.904Z,78.22
2019-04-16T02:09:42.805Z,78.41
2019-04-16T02:10:42.817Z,78.41
2019-04-16T02:11:42.633Z,78.13
2019-04-16T02:12:43.917Z,78.41
2019-04-16T02:13:45.875Z,78.59
2019-04-16T02:14:42.429Z,78.59
2019-04-16T02:15:42.308Z,78.50
2019-04-16T02:16:42.246Z,78.22
2019-04-16T02:17:42.134Z,78.56
2019-04-16T02:18:42.067Z,78.88
2019-04-16T02:19:41.972Z,78.79
2019-04-16T02:20:41.893Z,78.50
2019-04-16T02:21:42.126Z,78.27
2019-04-16T02:22:42.238Z,78.50
2019-04-16T02:23:41.645Z,78.31
2019-04-16T02:24:41.585Z,78.18
2019-04-16T02:25:41.474Z,78.50
2019-04-16T02:26:41.491Z,78.22
2019-04-16T02:27:41.308Z,78.27
2019-04-16T02:28:41.303Z,78.31
2019-04-16T02:29:41.148Z,78.69
2019-04-16T02:30:41.073Z,78.56
2019-04-16T02:31:40.982Z,79.17
2019-04-16T02:32:40.918Z,78.98
2019-04-16T02:33:40.819Z,79.13
2019-04-16T02:34:40.837Z,78.59
2019-04-16T02:35:40.654Z,78.59
2019-04-16T02:36:40.642Z,78.98
2019-04-16T02:37:40.486Z,78.41
2019-04-16T02:38:46.385Z,78.08
2019-04-16T02:39:49.015Z,77.46
2019-04-16T02:40:40.376Z,77.46
2019-04-16T02:41:40.155Z,77.89
2019-04-16T02:42:40.177Z,77.99
2019-04-16T02:43:41.222Z,77.99
2019-04-16T02:44:39.982Z,78.27
2019-04-16T02:45:39.824Z,78.75
2019-04-16T02:46:39.797Z,79.13
2019-04-16T02:47:41.932Z,79.13
2019-04-16T02:48:39.702Z,79.69
2019-04-16T02:49:39.501Z,79.32
2019-04-16T02:50:39.510Z,80.26
2019-04-16T02:51:41.223Z,80.17
2019-04-16T02:52:39.315Z,81.12
2019-04-16T02:53:39.163Z,81.02
2019-04-16T02:54:39.125Z,80.74
2019-04-16T02:55:42.642Z,80.26
2019-04-16T02:56:39.045Z,80.64
2019-04-16T02:57:38.834Z,80.83
2019-04-16T02:58:38.847Z,80.45
2019-04-16T02:59:45.924Z,80.17
2019-04-16T03:00:38.587Z,80.55
2019-04-16T03:01:38.563Z,79.88
2019-04-16T03:02:38.420Z,80.36
2019-04-16T03:03:38.370Z,79.79
2019-04-16T03:04:38.254Z,79.60
2019-04-16T03:05:38.277Z,79.60
2019-04-16T03:06:38.085Z,80.36
2019-04-16T03:07:38.092Z,80.17
2019-04-16T03:08:37.923Z,80.17
2019-04-16T03:09:40.201Z,80.07
2019-04-16T03:10:37.759Z,79.88
2019-04-16T03:11:37.708Z,80.17
2019-04-16T03:12:37.589Z,78.75
2019-04-16T03:13:37.622Z,78.56
2019-04-16T03:14:37.419Z,78.37
2019-04-16T03:15:37.434Z,78.94
2019-04-16T03:16:38.010Z,79.13
2019-04-16T03:17:39.563Z,79.13
2019-04-16T03:18:37.095Z,79.09
2019-04-16T03:19:38.897Z,79.37
2019-04-16T03:20:36.928Z,79.28
2019-04-16T03:21:36.961Z,79.09
2019-04-16T03:22:36.762Z,78.23
2019-04-16T03:23:37.559Z,78.99
2019-04-16T03:24:37.572Z,78.80
2019-04-16T03:25:36.575Z,78.61
2019-04-16T03:26:36.433Z,79.66
2019-04-16T03:27:36.380Z,80.79
2019-04-16T03:28:36.266Z,81.26
2019-04-16T03:29:36.302Z,80.98
2019-04-16T03:30:42.267Z,81.07
2019-04-16T03:31:36.106Z,81.07
2019-04-16T03:32:36.360Z,81.64
2019-04-16T03:33:35.915Z,81.83
2019-04-16T03:34:35.771Z,82.21
2019-04-16T03:35:35.721Z,81.07
2019-04-16T03:36:35.598Z,80.60
2019-04-16T03:37:35.668Z,80.41
2019-04-16T03:38:37.245Z,80.22
2019-04-16T03:39:35.442Z,80.60
2019-04-16T03:40:35.272Z,79.09
2019-04-16T03:41:35.269Z,78.14
2019-04-16T03:42:35.102Z,77.58
2019-04-16T03:43:35.062Z,78.42
2019-04-16T03:44:37.178Z,79.56
2019-04-16T03:45:37.556Z,80.98
2019-04-16T03:46:34.767Z,81.26
2019-04-16T03:47:34.787Z,82.78
2019-04-16T03:48:34.603Z,82.31
2019-04-16T03:49:34.595Z,82.40
2019-04-16T03:50:34.439Z,80.98
2019-04-16T03:51:35.551Z,81.03
2019-04-16T03:52:34.275Z,81.13
2019-04-16T03:53:34.206Z,81.60
2019-04-16T03:54:34.102Z,80.94
2019-04-16T03:55:34.118Z,81.83
2019-04-16T03:56:33.939Z,82.50
2019-04-16T03:57:33.972Z,82.68
2019-04-16T03:58:35.484Z,81.93
2019-04-16T03:59:33.735Z,82.02
2019-04-16T04:00:33.607Z,80.98
2019-04-16T04:01:33.542Z,80.98
2019-04-16T04:02:33.437Z,79.66
2019-04-16T04:03:33.460Z,79.47
2019-04-16T04:04:33.272Z,79.09
2019-04-16T04:05:35.149Z,78.90
2019-04-16T04:06:33.106Z,79.80
2019-04-16T04:07:33.043Z,81.74
2019-04-16T04:08:32.939Z,81.36
2019-04-16T04:09:32.888Z,80.94
2019-04-16T04:10:36.777Z,80.94
2019-04-16T04:11:32.793Z,81.36
2019-04-16T04:12:32.607Z,81.74
2019-04-16T04:13:32.602Z,81.26
2019-04-16T04:14:32.436Z,82.02
2019-04-16T04:15:32.418Z,82.12
2019-04-16T04:16:33.614Z,82.31
2019-04-16T04:17:32.223Z,82.78
2019-04-16T04:18:32.114Z,81.55
2019-04-16T04:19:32.137Z,81.17
2019-04-16T04:20:31.946Z,80.98
2019-04-16T04:21:31.942Z,80.98
2019-04-16T04:22:31.777Z,81.55
2019-04-16T04:23:31.751Z,81.93
2019-04-16T04:24:32.237Z,82.59
2019-04-16T04:25:36.017Z,82.50
2019-04-16T04:26:31.442Z,81.45
2019-04-16T04:27:31.475Z,79.47
2019-04-16T04:28:31.274Z,78.90
2019-04-16T04:29:31.283Z,79.28
2019-04-16T04:30:31.113Z,79.61
2019-04-16T04:31:32.354Z,79.99
2019-04-16T04:32:32.523Z,80.84
2019-04-16T04:33:30.908Z,81.98
2019-04-16T04:34:30.775Z,82.83
2019-04-16T04:35:30.712Z,83.68
2019-04-16T04:36:30.609Z,83.68
2019-04-16T04:37:31.219Z,84.16
2019-04-16T04:38:30.497Z,84.25
2019-04-16T04:39:30.432Z,83.21
2019-04-16T04:40:43.915Z,83.49
2019-04-16T04:41:30.197Z,83.68
2019-04-16T04:42:30.144Z,84.06
2019-04-16T04:43:31.915Z,83.21
2019-04-16T04:44:29.942Z,83.02
2019-04-16T04:45:29.851Z,82.64
2019-04-16T04:46:29.861Z,83.40
2019-04-16T04:47:29.686Z,83.49
2019-04-16T04:48:29.606Z,83.21
2019-04-16T04:49:30.517Z,84.06
2019-04-16T04:50:29.480Z,84.06
2019-04-16T04:51:29.348Z,84.34
2019-04-16T04:52:29.294Z,84.53
2019-04-16T04:53:29.182Z,85.00
2019-04-16T04:54:29.199Z,85.57
2019-04-16T04:55:29.023Z,85.76
2019-04-16T04:56:29.018Z,85.47
2019-04-16T04:57:31.132Z,85.76
2019-04-16T04:58:33.712Z,85.57
2019-04-16T04:59:28.685Z,86.14
2019-04-16T05:00:28.629Z,85.57
2019-04-16T05:01:28.514Z,86.14
2019-04-16T05:02:28.538Z,85.95
2019-04-16T05:03:28.347Z,85.85
2019-04-16T05:04:28.350Z,84.77
2019-04-16T05:05:28.185Z,83.97
2019-04-16T05:06:28.162Z,82.35
2019-04-16T05:07:29.145Z,82.73
2019-04-16T05:08:28.645Z,82.83
2019-04-16T05:09:29.458Z,84.06
2019-04-16T05:10:27.881Z,85.28
2019-04-16T05:11:27.674Z,86.04
2019-04-16T05:12:27.694Z,86.61
2019-04-16T05:13:27.517Z,86.61
2019-04-16T05:14:27.497Z,86.99
2019-04-16T05:15:29.392Z,86.61
2019-04-16T05:16:27.306Z,87.27
2019-04-16T05:17:27.180Z,86.99
2019-04-16T05:18:27.120Z,86.99
2019-04-16T05:19:27.006Z,86.52
2019-04-16T05:20:29.721Z,86.90
2019-04-16T05:21:26.849Z,87.27
2019-04-16T05:22:26.835Z,86.99
2019-04-16T05:23:26.677Z,87.18
2019-04-16T05:24:29.174Z,86.90
2019-04-16T05:25:26.503Z,86.61
2019-04-16T05:26:26.454Z,86.75
2019-04-16T05:27:29.159Z,86.85
2019-04-16T05:28:26.372Z,86.85
2019-04-16T05:29:26.174Z,86.75
2019-04-16T05:30:26.225Z,86.47
2019-04-16T05:31:26.235Z,86.56
2019-04-16T05:32:29.353Z,86.85
2019-04-16T05:33:25.838Z,86.56
2019-04-16T05:34:25.759Z,86.37
2019-04-16T05:35:25.686Z,85.99
2019-04-16T05:36:25.707Z,85.52
2019-04-16T05:37:25.506Z,85.80
2019-04-16T05:38:25.509Z,86.28
2019-04-16T05:39:28.140Z,85.80
2019-04-16T05:40:28.222Z,85.80
2019-04-16T05:41:25.455Z,85.80
2019-04-16T05:42:26.251Z,85.52
2019-04-16T05:43:30.028Z,85.61
2019-04-16T05:44:24.946Z,86.09
2019-04-16T05:45:24.836Z,85.71
2019-04-16T05:46:24.854Z,85.71
2019-04-16T05:47:24.671Z,85.52
2019-04-16T05:48:24.765Z,85.24
2019-04-16T05:49:25.952Z,85.42
2019-04-16T05:50:28.726Z,84.77
2019-04-16T05:51:24.341Z,85.47
2019-04-16T05:52:24.381Z,85.52
2019-04-16T05:53:24.218Z,85.94
2019-04-16T05:54:24.294Z,86.79
2019-04-16T05:55:24.084Z,87.74
2019-04-16T05:56:25.965Z,88.40
2019-04-16T05:57:26.518Z,88.40
2019-04-16T05:58:23.771Z,88.31
2019-04-16T05:59:23.676Z,88.40
2019-04-16T06:00:23.723Z,88.31
2019-04-16T06:01:23.513Z,87.74
2019-04-16T06:02:23.534Z,87.93
2019-04-16T06:03:23.338Z,88.12
2019-04-16T06:04:24.966Z,87.84
2019-04-16T06:05:26.764Z,87.84
2019-04-16T06:06:23.243Z,88.02
2019-04-16T06:07:23.008Z,87.74
2019-04-16T06:08:23.058Z,88.21
2019-04-16T06:09:22.838Z,88.40
2019-04-16T06:10:22.971Z,87.84
2019-04-16T06:11:29.209Z,88.31
2019-04-16T06:12:22.591Z,87.78
2019-04-16T06:13:22.684Z,87.31
2019-04-16T06:14:25.418Z,87.40
2019-04-16T06:15:22.756Z,87.50
2019-04-16T06:16:25.406Z,87.31
2019-04-16T06:17:25.206Z,87.40
2019-04-16T06:18:22.089Z,86.65
2019-04-16T06:19:22.216Z,87.12
2019-04-16T06:20:21.926Z,87.02
2019-04-16T06:21:22.638Z,86.83
2019-04-16T06:22:21.761Z,86.93
2019-04-16T06:23:21.827Z,85.51
2019-04-16T06:24:21.595Z,85.51
2019-04-16T06:25:21.539Z,84.47
2019-04-16T06:26:21.462Z,84.28
2019-04-16T06:27:21.798Z,83.33
2019-04-16T06:28:21.267Z,83.24
2019-04-16T06:29:21.366Z,83.47
2019-04-16T06:30:21.185Z,83.75
2019-04-16T06:31:21.061Z,83.47
2019-04-16T06:32:20.923Z,83.47
2019-04-16T06:33:20.979Z,83.00
2019-04-16T06:34:23.688Z,81.86
2019-04-16T06:35:20.887Z,81.01
2019-04-16T06:36:20.595Z,79.06
2019-04-16T06:37:23.375Z,77.78
2019-04-16T06:38:20.427Z,76.12
2019-04-16T06:39:20.660Z,76.40
2019-04-16T06:40:20.288Z,76.78
2019-04-16T06:41:20.315Z,76.12
2019-04-16T06:42:22.308Z,74.92
2019-04-16T06:43:25.181Z,74.45
2019-04-16T06:44:19.944Z,75.31
2019-04-16T06:45:19.931Z,74.64
2019-04-16T06:46:19.770Z,73.22
2019-04-16T06:47:19.742Z,73.12
2019-04-16T06:48:19.625Z,73.60
2019-04-16T06:49:19.531Z,72.45
2019-04-16T06:50:31.285Z,71.70
2019-04-16T06:51:19.366Z,70.69
2019-04-16T06:52:19.368Z,69.84
2019-04-16T06:53:19.491Z,69.84
2019-04-16T06:54:19.118Z,69.27
2019-04-16T06:55:19.028Z,69.55
2019-04-16T06:56:20.687Z,68.51
2019-04-16T06:57:19.043Z,68.41
2019-04-16T06:58:18.894Z,67.27
2019-04-16T06:59:18.704Z,67.69
2019-04-16T07:00:18.709Z,68.35
2019-04-16T07:01:21.974Z,68.44
2019-04-16T07:02:18.474Z,67.59
2019-04-16T07:03:18.367Z,67.50
2019-04-16T07:04:18.283Z,66.93
2019-04-16T07:05:18.237Z,67.69
2019-04-16T07:06:18.125Z,67.31
2019-04-16T07:07:18.138Z,66.87
2019-04-16T07:08:19.253Z,67.34
2019-04-16T07:09:23.620Z,67.34
2019-04-16T07:10:17.794Z,67.91
2019-04-16T07:11:17.761Z,66.11
2019-04-16T07:12:17.638Z,66.11
2019-04-16T07:13:17.678Z,65.63
2019-04-16T07:14:17.654Z,65.86
2019-04-16T07:15:22.294Z,65.38
2019-04-16T07:16:17.306Z,64.72
2019-04-16T07:17:18.445Z,64.62
2019-04-16T07:18:17.145Z,64.53
2019-04-16T07:19:17.713Z,64.43
2019-04-16T07:20:16.980Z,63.67
2019-04-16T07:21:17.503Z,63.51
2019-04-16T07:22:20.811Z,63.13
2019-04-16T07:23:16.874Z,63.51
2019-04-16T07:24:16.672Z,63.99
2019-04-16T07:25:17.094Z,62.75
2019-04-16T07:26:16.715Z,62.75
2019-04-16T07:27:19.603Z,63.54
2019-04-16T07:28:16.384Z,62.69
2019-04-16T07:29:16.433Z,62.49
2019-04-16T07:30:19.711Z,61.83
2019-04-16T07:31:31.813Z,60.12
2019-04-16T07:32:16.080Z,59.48
2019-04-16T07:33:15.963Z,59.01
2019-04-16T07:34:15.847Z,58.91
2019-04-16T07:35:15.874Z,59.39
2019-04-16T07:36:15.683Z,59.01
2019-04-16T07:37:15.682Z,58.91
2019-04-16T07:38:15.530Z,59.13
2019-04-16T07:39:28.752Z,57.89
2019-04-16T07:40:15.366Z,57.42
2019-04-16T07:41:17.066Z,56.27
2019-04-16T07:42:21.196Z,54.66
2019-04-16T07:43:15.941Z,53.92
2019-04-16T07:44:15.046Z,53.16
2019-04-16T07:45:15.024Z,53.35
2019-04-16T07:46:14.884Z,52.11
2019-04-16T07:47:19.653Z,51.92
2019-04-16T07:48:14.838Z,52.11
2019-04-16T07:49:14.643Z,51.92
2019-04-16T07:50:14.644Z,51.95
2019-04-16T07:51:14.482Z,51.95
2019-04-16T07:52:14.406Z,51.85
2019-04-16T07:53:14.550Z,52.23
2019-04-16T07:54:14.306Z,52.80
2019-04-16T07:55:14.275Z,52.07
2019-04-16T07:56:14.085Z,52.64
2019-04-16T07:57:14.141Z,53.50
2019-04-16T07:58:13.926Z,53.41
2019-04-16T07:59:13.889Z,51.50
2019-04-16T08:00:13.766Z,50.35
2019-04-16T08:01:16.366Z,49.87
2019-04-16T08:02:13.612Z,50.67
2019-04-16T08:03:13.612Z,49.68
2019-04-16T08:04:13.449Z,48.63
2019-04-16T08:05:13.420Z,47.61
2019-04-16T08:06:14.267Z,48.08
2019-04-16T08:07:13.332Z,49.23
2019-04-16T08:08:13.143Z,49.33
2019-04-16T08:09:13.138Z,48.57
2019-04-16T08:10:12.974Z,50.28
2019-04-16T08:11:12.949Z,49.23
2019-04-16T08:12:29.580Z,48.97
2019-04-16T08:13:14.159Z,48.97
2019-04-16T08:14:14.639Z,47.63
2019-04-16T08:15:15.279Z,46.77
2019-04-16T08:16:12.570Z,47.27
2019-04-16T08:17:12.428Z,46.58
2019-04-16T08:18:12.383Z,46.89
2019-04-16T08:19:14.855Z,45.06
2019-04-16T08:20:12.292Z,45.27
2019-04-16T08:21:12.522Z,45.56
2019-04-16T08:22:15.441Z,45.17
2019-04-16T08:23:11.962Z,44.98
2019-04-16T08:24:11.917Z,44.51
2019-04-16T08:25:11.804Z,43.46
2019-04-16T08:26:13.667Z,43.36
2019-04-16T08:27:18.026Z,44.12
2019-04-16T08:28:11.649Z,44.98
2019-04-16T08:29:11.494Z,45.17
2019-04-16T08:30:11.446Z,45.39
2019-04-16T08:31:12.872Z,45.48
2019-04-16T08:32:12.836Z,44.62
2019-04-16T08:33:11.685Z,45.10
2019-04-16T08:34:11.162Z,46.44
2019-04-16T08:35:11.027Z,46.92
2019-04-16T08:36:10.981Z,45.77
2019-04-16T08:37:10.871Z,44.65
2019-04-16T08:38:10.886Z,44.17
2019-04-16T08:39:10.720Z,43.02
2019-04-16T08:40:12.216Z,41.78
2019-04-16T08:41:12.760Z,42.16
2019-04-16T08:42:10.482Z,41.68
2019-04-16T08:43:10.408Z,41.68
2019-04-16T08:44:10.776Z,42.25
2019-04-16T08:45:10.260Z,44.45
2019-04-16T08:46:11.524Z,43.50
2019-04-16T08:47:12.004Z,42.83
2019-04-16T08:48:10.322Z,43.69
2019-04-16T08:49:09.953Z,43.02
2019-04-16T08:50:11.706Z,42.64
2019-04-16T08:51:09.795Z,41.78
2019-04-16T08:52:10.930Z,40.92
2019-04-16T08:53:13.290Z,40.44
2019-04-16T08:54:09.659Z,40.63
2019-04-16T08:55:09.488Z,41.49
2019-04-16T08:56:09.472Z,41.51
2019-04-16T08:57:09.333Z,41.51
2019-04-16T08:58:12.330Z,41.03
2019-04-16T08:59:10.957Z,41.32
2019-04-16T09:00:14.127Z,41.51
2019-04-16T09:01:09.099Z,41.51
2019-04-16T09:02:08.953Z,42.01
2019-04-16T09:03:08.994Z,41.53
2019-04-16T09:04:08.808Z,41.44
2019-04-16T09:05:11.474Z,40.95
2019-04-16T09:06:13.167Z,40.77
2019-04-16T09:07:12.176Z,40.09
2019-04-16T09:08:13.010Z,42.40
2019-04-16T09:09:13.525Z,40.95
2019-04-16T09:10:17.118Z,40.38
2019-04-16T09:11:21.841Z,38.37
2019-04-16T09:12:09.672Z,38.95
2019-04-16T09:13:08.369Z,40.86
2019-04-16T09:14:08.036Z,40.09
2019-04-16T09:15:08.067Z,39.43
2019-04-16T09:16:10.808Z,39.25
2019-04-16T09:17:09.731Z,39.73
2019-04-16T09:18:07.730Z,41.36
2019-04-16T09:19:07.690Z,41.27
2019-04-16T09:20:07.585Z,40.14
2019-04-16T09:21:10.510Z,40.04
2019-04-16T09:22:07.433Z,39.28
2019-04-16T09:23:07.403Z,39.47
2019-04-16T09:24:09.345Z,39.75
2019-04-16T09:25:12.749Z,39.18
2019-04-16T09:26:14.153Z,39.08
2019-04-16T09:27:07.050Z,40.04
2019-04-16T09:28:09.921Z,39.65
2019-04-16T09:29:09.896Z,38.14
2019-04-16T09:30:09.865Z,38.81
2019-04-16T09:31:06.851Z,38.51
2019-04-16T09:32:06.673Z,37.84
2019-04-16T09:33:06.669Z,37.95
2019-04-16T09:34:07.047Z,38.89
2019-04-16T09:35:09.847Z,38.34
2019-04-16T09:36:06.377Z,37.74
2019-04-16T09:37:06.387Z,38.53
2019-04-16T09:38:09.367Z,37.47
2019-04-16T09:39:06.200Z,37.09
2019-04-16T09:40:16.519Z,39.29
2019-04-16T09:41:06.102Z,37.76
2019-04-16T09:42:05.918Z,38.05
2019-04-16T09:43:16.099Z,37.95
2019-04-16T09:44:05.811Z,37.28
2019-04-16T09:45:05.820Z,37.78
2019-04-16T09:46:10.496Z,37.78
2019-04-16T09:47:05.631Z,35.75
2019-04-16T09:48:05.533Z,36.04
2019-04-16T09:49:06.165Z,36.61
2019-04-16T09:50:09.792Z,37.57
2019-04-16T09:51:05.255Z,36.61
2019-04-16T09:52:05.248Z,35.55
2019-04-16T09:53:05.103Z,34.50
2019-04-16T09:54:05.062Z,34.31
2019-04-16T09:55:04.948Z,35.36
2019-04-16T09:56:04.966Z,35.17
2019-04-16T09:57:04.806Z,35.17
2019-04-16T09:58:06.934Z,35.48
2019-04-16T09:59:04.688Z,35.28
2019-04-16T10:00:04.775Z,35.19
2019-04-16T10:01:04.509Z,35.19
2019-04-16T10:02:04.500Z,35.28
2019-04-16T10:03:04.359Z,34.23
2019-04-16T10:04:04.307Z,34.42
2019-04-16T10:05:04.212Z,32.78
2019-04-16T10:06:05.654Z,33.45
2019-04-16T10:07:04.072Z,33.54
2019-04-16T10:08:04.037Z,33.64
2019-04-16T10:09:03.987Z,33.92
2019-04-16T10:10:03.954Z,34.41
2019-04-16T10:11:06.092Z,35.17
2019-04-16T10:12:04.994Z,35.27
2019-04-16T10:13:03.622Z,35.19
2019-04-16T10:14:03.559Z,33.16
2019-04-16T10:15:03.464Z,33.75
2019-04-16T10:16:03.470Z,35.48
2019-04-16T10:17:03.327Z,35.10
2019-04-16T10:18:03.279Z,34.81
2019-04-16T10:19:07.644Z,35.38
2019-04-16T10:20:03.209Z,34.14
2019-04-16T10:21:03.044Z,35.57
2019-04-16T10:22:02.997Z,34.81
2019-04-16T10:23:02.900Z,34.81
2019-04-16T10:24:02.913Z,34.31
2019-04-16T10:25:02.744Z,33.64
2019-04-16T10:26:02.729Z,33.75
2019-04-16T10:27:04.330Z,35.67
2019-04-16T10:28:04.938Z,35.57
2019-04-16T10:29:02.422Z,34.23
2019-04-16T10:30:02.443Z,35.30
2019-04-16T10:31:02.279Z,35.78
2019-04-16T10:32:02.248Z,33.96
2019-04-16T10:33:02.138Z,33.08
2019-04-16T10:34:02.180Z,33.84
2019-04-16T10:35:01.993Z,32.79
2019-04-16T10:36:04.634Z,32.03
2019-04-16T10:37:01.835Z,32.51
2019-04-16T10:38:01.786Z,33.84
2019-04-16T10:39:01.698Z,35.48
2019-04-16T10:40:04.806Z,35.28
2019-04-16T10:41:01.535Z,34.52
2019-04-16T10:42:01.486Z,33.65
2019-04-16T10:43:01.417Z,33.37
2019-04-16T10:44:01.421Z,33.08
2019-04-16T10:45:01.253Z,32.89
2019-04-16T10:46:01.241Z,32.98
2019-04-16T10:47:01.128Z,35.00
2019-04-16T10:48:01.148Z,35.10
2019-04-16T10:49:00.947Z,33.84
2019-04-16T10:50:00.958Z,34.14
2019-04-16T10:51:00.803Z,32.81
2019-04-16T10:52:00.750Z,33.19
2019-04-16T10:53:00.653Z,33.58
2019-04-16T10:54:00.660Z,34.15
2019-04-16T10:55:00.524Z,32.42
2019-04-16T10:56:00.441Z,32.14
2019-04-16T10:57:00.362Z,32.42
2019-04-16T10:58:00.400Z,33.00
2019-04-16T10:59:00.207Z,32.31
2019-04-16T11:00:00.305Z,32.79
2019-04-16T11:01:00.067Z,34.14
2019-04-16T11:02:00.119Z,34.90
2019-04-16T11:02:59.911Z,35.97
2019-04-16T11:04:00.048Z,34.06
2019-04-16T11:05:02.176Z,32.14
2019-04-16T11:05:59.828Z,31.85
2019-04-16T11:06:59.618Z,31.66
2019-04-16T11:07:59.736Z,31.93
2019-04-16T11:08:59.468Z,30.97
2019-04-16T11:09:59.550Z,32.21
2019-04-16T11:10:59.322Z,33.56
2019-04-16T11:11:59.385Z,31.84
2019-04-16T11:12:59.193Z,32.79
2019-04-16T11:14:00.534Z,33.75
2019-04-16T11:14:59.203Z,32.41
2019-04-16T11:15:58.951Z,30.60
2019-04-16T11:16:58.877Z,30.41
2019-04-16T11:17:58.987Z,29.64
2019-04-16T11:18:58.746Z,30.02
2019-04-16T11:20:00.136Z,31.35
2019-04-16T11:20:58.585Z,31.85
2019-04-16T11:21:59.911Z,34.53
2019-04-16T11:22:58.462Z,33.48
2019-04-16T11:23:58.538Z,33.19
2019-04-16T11:24:58.314Z,32.71
2019-04-16T11:25:58.217Z,32.71
2019-04-16T11:26:58.333Z,32.14
2019-04-16T11:27:58.103Z,32.82
2019-04-16T11:28:58.159Z,32.44
2019-04-16T11:29:57.949Z,31.77
2019-04-16T11:30:58.069Z,31.29
2019-04-16T11:31:57.774Z,30.62
2019-04-16T11:32:57.882Z,33.59
2019-04-16T11:33:57.649Z,33.98
2019-04-16T11:34:57.667Z,33.11
2019-04-16T11:35:57.520Z,32.92
2019-04-16T11:36:58.515Z,33.59
2019-04-16T11:37:57.337Z,34.27
2019-04-16T11:38:57.404Z,33.40
2019-04-16T11:39:57.191Z,31.29
2019-04-16T11:40:57.298Z,32.06
2019-04-16T11:41:57.040Z,33.11
2019-04-16T11:42:57.145Z,32.06
2019-04-16T11:43:56.902Z,31.29
2019-04-16T11:44:57.023Z,30.71
2019-04-16T11:45:56.748Z,31.58
2019-04-16T11:46:56.847Z,32.07
2019-04-16T11:47:56.623Z,31.69
2019-04-16T11:48:56.657Z,31.88
2019-04-16T11:49:56.453Z,31.40
2019-04-16T11:50:56.585Z,31.02
2019-04-16T11:51:56.312Z,30.35
2019-04-16T11:52:58.184Z,31.88
2019-04-16T11:53:56.179Z,33.42
2019-04-16T11:54:56.199Z,31.30
2019-04-16T11:55:56.184Z,30.84
2019-04-16T11:56:59.429Z,31.21
2019-04-16T11:57:55.988Z,32.09
2019-04-16T11:58:57.530Z,32.93
2019-04-16T12:00:06.688Z,32.84
2019-04-16T12:00:56.409Z,34.20
2019-04-16T12:01:56.720Z,32.26
2019-04-16T12:02:55.649Z,33.80
2019-04-16T12:03:56.680Z,34.38
2019-04-16T12:04:59.060Z,32.28
2019-04-16T12:05:55.752Z,31.61
2019-04-16T12:06:55.745Z,31.32
2019-04-16T12:07:55.311Z,31.13
2019-04-16T12:08:55.580Z,29.96
2019-04-16T12:09:55.258Z,30.15
2019-04-16T12:10:55.009Z,30.35
2019-04-16T12:11:55.104Z,30.25
2019-04-16T12:12:54.880Z,31.49
2019-04-16T12:13:55.382Z,32.17
2019-04-16T12:14:54.775Z,31.40
2019-04-16T12:15:54.721Z,31.69
2019-04-16T12:16:54.498Z,31.02
2019-04-16T12:17:54.690Z,31.21
2019-04-16T12:18:54.637Z,30.92
2019-04-16T12:19:54.897Z,32.65
2019-04-16T12:20:54.679Z,33.62
2019-04-16T12:21:54.305Z,30.84
2019-04-16T12:22:54.135Z,30.74
2019-04-16T12:23:54.155Z,30.26
2019-04-16T12:24:54.011Z,30.93
2019-04-16T12:25:54.071Z,30.85
2019-04-16T12:26:53.755Z,30.18
2019-04-16T12:27:53.940Z,30.18
2019-04-16T12:28:53.633Z,31.24
2019-04-16T12:29:53.751Z,32.59
2019-04-16T12:30:53.474Z,32.49
2019-04-16T12:31:53.552Z,31.32
2019-04-16T12:32:53.388Z,31.43
2019-04-16T12:33:53.368Z,30.46
2019-04-16T12:34:53.186Z,30.57
2019-04-16T12:35:53.284Z,32.39
2019-04-16T12:36:53.033Z,32.49
2019-04-16T12:37:53.113Z,32.97
2019-04-16T12:38:52.885Z,31.05
2019-04-16T12:39:53.001Z,29.80
2019-04-16T12:40:52.739Z,31.34
2019-04-16T12:41:52.927Z,31.53
2019-04-16T12:42:52.637Z,31.13
2019-04-16T12:43:52.735Z,31.13
2019-04-16T12:44:52.458Z,30.17
2019-04-16T12:45:53.534Z,30.26
2019-04-16T12:46:52.307Z,29.69
2019-04-16T12:47:52.464Z,30.08
2019-04-16T12:48:52.165Z,31.03
2019-04-16T12:49:52.282Z,31.70
2019-04-16T12:50:52.067Z,32.38
2019-04-16T12:51:51.966Z,31.61